sensor_id;sensor_type;location;lat;lon;timestamp;P1;durP1;ratioP1;P2;durP2;ratioP2
44516;SDS011;30223;17.182;-96.766;2022-12-07T00:01:17;4.13;;;2.80;;
44516;SDS011;30223;17.182;-96.766;2022-12-07T00:03:45;5.30;;;3.60;;
44516;SDS011;30223;17.182;-96.766;2022-12-07T00:06:14;4.57;;;2.60;;
44516;SDS011;30223;17.182;-96.766;2022-12-07T00:08:42;9.70;;;3.30;;
44516;SDS011;30223;17.182;-96.766;2022-12-07T00:11:12;6.10;;;2.88;;
44516;SDS011;30223;17.182;-96.766;2022-12-07T00:13:44;4.50;;;3.20;;
44516;SDS011;30223;17.182;-96.766;2022-12-07T00:16:13;5.90;;;2.90;;
44516;SDS011;30223;17.182;-96.766;2022-12-07T00:21:11;4.57;;;3.50;;
44516;SDS011;30223;17.182;-96.766;2022-12-07T00:23:41;8.65;;;3.05;;
44516;SDS011;30223;17.182;-96.766;2022-12-07T00:26:10;7.22;;;3.53;;
44516;SDS011;30223;17.182;-96.766;2022-12-07T00:29:11;4.20;;;3.42;;
44516;SDS011;30223;17.182;-96.766;2022-12-07T00:31:43;5.70;;;2.63;;
44516;SDS011;30223;17.182;-96.766;2022-12-07T00:34:14;7.85;;;3.70;;
44516;SDS011;30223;17.182;-96.766;2022-12-07T00:36:45;6.20;;;3.15;;
44516;SDS011;30223;17.182;-96.766;2022-12-07T00:39:12;4.15;;;3.72;;
44516;SDS011;30223;17.182;-96.766;2022-12-07T00:41:38;5.63;;;3.92;;
44516;SDS011;30223;17.182;-96.766;2022-12-07T00:44:05;5.38;;;2.97;;
44516;SDS011;30223;17.182;-96.766;2022-12-07T00:46:32;5.30;;;3.45;;
44516;SDS011;30223;17.182;-96.766;2022-12-07T00:48:58;5.93;;;3.38;;
44516;SDS011;30223;17.182;-96.766;2022-12-07T00:51:25;4.85;;;3.95;;
44516;SDS011;30223;17.182;-96.766;2022-12-07T00:53:52;8.27;;;4.80;;
44516;SDS011;30223;17.182;-96.766;2022-12-07T00:56:20;6.78;;;3.65;;
44516;SDS011;30223;17.182;-96.766;2022-12-07T01:01:21;6.65;;;4.82;;
44516;SDS011;30223;17.182;-96.766;2022-12-07T01:03:49;8.25;;;4.28;;
44516;SDS011;30223;17.182;-96.766;2022-12-07T01:06:16;5.43;;;4.10;;
44516;SDS011;30223;17.182;-96.766;2022-12-07T01:08:44;9.40;;;4.37;;
44516;SDS011;30223;17.182;-96.766;2022-12-07T01:11:12;4.97;;;3.53;;
44516;SDS011;30223;17.182;-96.766;2022-12-07T01:13:41;10.05;;;3.88;;
44516;SDS011;30223;17.182;-96.766;2022-12-07T01:16:08;5.15;;;3.95;;
44516;SDS011;30223;17.182;-96.766;2022-12-07T01:18:37;7.90;;;4.97;;
44516;SDS011;30223;17.182;-96.766;2022-12-07T01:21:05;7.07;;;4.53;;
44516;SDS011;30223;17.182;-96.766;2022-12-07T01:23:41;9.75;;;5.53;;
44516;SDS011;30223;17.182;-96.766;2022-12-07T01:26:11;6.53;;;4.65;;
44516;SDS011;30223;17.182;-96.766;2022-12-07T01:28:41;8.65;;;4.53;;
44516;SDS011;30223;17.182;-96.766;2022-12-07T01:31:10;5.43;;;3.80;;
44516;SDS011;30223;17.182;-96.766;2022-12-07T01:33:40;7.75;;;3.80;;
44516;SDS011;30223;17.182;-96.766;2022-12-07T01:36:12;7.68;;;3.83;;
44516;SDS011;30223;17.182;-96.766;2022-12-07T01:38:39;5.82;;;4.15;;
44516;SDS011;30223;17.182;-96.766;2022-12-07T01:41:06;4.78;;;3.72;;
44516;SDS011;30223;17.182;-96.766;2022-12-07T01:43:33;6.85;;;4.10;;
44516;SDS011;30223;17.182;-96.766;2022-12-07T01:46:00;6.53;;;4.53;;
44516;SDS011;30223;17.182;-96.766;2022-12-07T01:48:38;9.18;;;4.15;;
44516;SDS011;30223;17.182;-96.766;2022-12-07T01:51:10;9.02;;;4.82;;
44516;SDS011;30223;17.182;-96.766;2022-12-07T01:53:40;7.57;;;4.15;;
44516;SDS011;30223;17.182;-96.766;2022-12-07T01:56:11;8.55;;;4.30;;
44516;SDS011;30223;17.182;-96.766;2022-12-07T01:58:44;6.43;;;3.67;;
44516;SDS011;30223;17.182;-96.766;2022-12-07T02:01:11;4.85;;;3.97;;
44516;SDS011;30223;17.182;-96.766;2022-12-07T02:03:40;6.28;;;3.58;;
44516;SDS011;30223;17.182;-96.766;2022-12-07T02:06:08;14.20;;;4.55;;
44516;SDS011;30223;17.182;-96.766;2022-12-07T02:08:37;6.45;;;4.07;;
44516;SDS011;30223;17.182;-96.766;2022-12-07T02:11:04;6.40;;;3.85;;
44516;SDS011;30223;17.182;-96.766;2022-12-07T02:13:34;5.75;;;3.50;;
44516;SDS011;30223;17.182;-96.766;2022-12-07T02:30:06;6.47;;;3.70;;
44516;SDS011;30223;17.182;-96.766;2022-12-07T02:38:13;4.38;;;3.47;;
44516;SDS011;30223;17.182;-96.766;2022-12-07T02:43:45;5.78;;;3.50;;
44516;SDS011;30223;17.182;-96.766;2022-12-07T02:46:22;3.92;;;3.13;;
44516;SDS011;30223;17.182;-96.766;2022-12-07T02:48:55;5.18;;;3.65;;
44516;SDS011;30223;17.182;-96.766;2022-12-07T02:51:25;8.43;;;3.38;;
44516;SDS011;30223;17.182;-96.766;2022-12-07T02:53:51;6.38;;;3.17;;
44516;SDS011;30223;17.182;-96.766;2022-12-07T03:02:13;4.35;;;3.22;;
44516;SDS011;30223;17.182;-96.766;2022-12-07T03:04:54;5.43;;;2.97;;
44516;SDS011;30223;17.182;-96.766;2022-12-07T03:08:11;6.60;;;3.78;;
44516;SDS011;30223;17.182;-96.766;2022-12-07T03:10:54;6.97;;;3.30;;
44516;SDS011;30223;17.182;-96.766;2022-12-07T03:16:08;4.53;;;3.22;;
44516;SDS011;30223;17.182;-96.766;2022-12-07T03:21:17;5.57;;;3.25;;
44516;SDS011;30223;17.182;-96.766;2022-12-07T03:23:49;4.68;;;3.08;;
44516;SDS011;30223;17.182;-96.766;2022-12-07T03:26:19;5.85;;;3.25;;
44516;SDS011;30223;17.182;-96.766;2022-12-07T03:28:52;6.55;;;3.90;;
44516;SDS011;30223;17.182;-96.766;2022-12-07T03:31:31;6.70;;;3.65;;
44516;SDS011;30223;17.182;-96.766;2022-12-07T03:34:03;5.75;;;3.60;;
44516;SDS011;30223;17.182;-96.766;2022-12-07T03:36:40;4.47;;;3.35;;
44516;SDS011;30223;17.182;-96.766;2022-12-07T03:42:18;7.10;;;2.95;;
44516;SDS011;30223;17.182;-96.766;2022-12-07T03:44:45;6.70;;;3.28;;
44516;SDS011;30223;17.182;-96.766;2022-12-07T03:47:26;4.60;;;3.70;;
44516;SDS011;30223;17.182;-96.766;2022-12-07T03:53:02;6.30;;;3.25;;
44516;SDS011;30223;17.182;-96.766;2022-12-07T03:55:35;3.42;;;3.03;;
44516;SDS011;30223;17.182;-96.766;2022-12-07T03:58:06;4.28;;;3.05;;
44516;SDS011;30223;17.182;-96.766;2022-12-07T04:00:36;4.40;;;3.33;;
44516;SDS011;30223;17.182;-96.766;2022-12-07T04:03:03;3.75;;;3.38;;
44516;SDS011;30223;17.182;-96.766;2022-12-07T04:05:29;7.45;;;3.63;;
44516;SDS011;30223;17.182;-96.766;2022-12-07T04:07:56;4.38;;;3.22;;
44516;SDS011;30223;17.182;-96.766;2022-12-07T04:10:23;4.40;;;3.33;;
44516;SDS011;30223;17.182;-96.766;2022-12-07T04:12:49;4.68;;;2.60;;
44516;SDS011;30223;17.182;-96.766;2022-12-07T04:15:16;3.75;;;3.33;;
44516;SDS011;30223;17.182;-96.766;2022-12-07T04:17:43;3.38;;;3.08;;
44516;SDS011;30223;17.182;-96.766;2022-12-07T04:20:09;4.30;;;2.53;;
44516;SDS011;30223;17.182;-96.766;2022-12-07T04:22:37;3.30;;;2.53;;
44516;SDS011;30223;17.182;-96.766;2022-12-07T04:25:03;3.70;;;2.67;;
44516;SDS011;30223;17.182;-96.766;2022-12-07T04:27:30;3.28;;;2.95;;
44516;SDS011;30223;17.182;-96.766;2022-12-07T04:29:57;3.45;;;2.40;;
44516;SDS011;30223;17.182;-96.766;2022-12-07T04:32:24;4.38;;;2.85;;
44516;SDS011;30223;17.182;-96.766;2022-12-07T04:34:50;3.85;;;2.65;;
44516;SDS011;30223;17.182;-96.766;2022-12-07T04:37:17;3.22;;;2.53;;
44516;SDS011;30223;17.182;-96.766;2022-12-07T04:39:43;2.88;;;2.25;;
44516;SDS011;30223;17.182;-96.766;2022-12-07T04:42:10;4.15;;;3.05;;
44516;SDS011;30223;17.182;-96.766;2022-12-07T04:44:38;3.83;;;2.83;;
44516;SDS011;30223;17.182;-96.766;2022-12-07T04:47:05;4.28;;;2.45;;
44516;SDS011;30223;17.182;-96.766;2022-12-07T04:49:31;5.60;;;2.47;;
44516;SDS011;30223;17.182;-96.766;2022-12-07T04:51:58;3.90;;;2.95;;
44516;SDS011;30223;17.182;-96.766;2022-12-07T04:54:24;3.38;;;2.80;;
44516;SDS011;30223;17.182;-96.766;2022-12-07T04:56:51;4.68;;;2.63;;
44516;SDS011;30223;17.182;-96.766;2022-12-07T04:59:18;4.93;;;2.85;;
44516;SDS011;30223;17.182;-96.766;2022-12-07T05:01:44;4.72;;;2.67;;
44516;SDS011;30223;17.182;-96.766;2022-12-07T05:04:11;3.70;;;2.97;;
44516;SDS011;30223;17.182;-96.766;2022-12-07T05:06:38;2.88;;;2.47;;
44516;SDS011;30223;17.182;-96.766;2022-12-07T05:09:04;3.35;;;2.33;;
44516;SDS011;30223;17.182;-96.766;2022-12-07T05:11:31;5.25;;;2.88;;
44516;SDS011;30223;17.182;-96.766;2022-12-07T05:14:07;3.83;;;2.88;;
44516;SDS011;30223;17.182;-96.766;2022-12-07T05:16:36;3.80;;;2.80;;
44516;SDS011;30223;17.182;-96.766;2022-12-07T05:19:03;2.97;;;2.50;;
44516;SDS011;30223;17.182;-96.766;2022-12-07T05:21:30;2.70;;;2.50;;
44516;SDS011;30223;17.182;-96.766;2022-12-07T05:23:57;3.45;;;2.60;;
44516;SDS011;30223;17.182;-96.766;2022-12-07T05:26:24;3.88;;;2.20;;
44516;SDS011;30223;17.182;-96.766;2022-12-07T05:28:51;2.88;;;2.13;;
44516;SDS011;30223;17.182;-96.766;2022-12-07T05:31:19;4.05;;;2.80;;
44516;SDS011;30223;17.182;-96.766;2022-12-07T05:33:46;7.38;;;2.45;;
44516;SDS011;30223;17.182;-96.766;2022-12-07T05:36:12;2.92;;;2.47;;
44516;SDS011;30223;17.182;-96.766;2022-12-07T05:38:39;3.20;;;2.80;;
44516;SDS011;30223;17.182;-96.766;2022-12-07T05:41:06;5.07;;;3.50;;
44516;SDS011;30223;17.182;-96.766;2022-12-07T05:43:54;5.35;;;2.33;;
44516;SDS011;30223;17.182;-96.766;2022-12-07T05:46:21;2.75;;;2.42;;
44516;SDS011;30223;17.182;-96.766;2022-12-07T05:48:48;3.05;;;1.95;;
44516;SDS011;30223;17.182;-96.766;2022-12-07T05:51:15;2.75;;;2.15;;
44516;SDS011;30223;17.182;-96.766;2022-12-07T05:53:41;2.30;;;2.10;;
44516;SDS011;30223;17.182;-96.766;2022-12-07T05:56:08;3.70;;;2.67;;
44516;SDS011;30223;17.182;-96.766;2022-12-07T05:58:35;4.22;;;1.98;;
44516;SDS011;30223;17.182;-96.766;2022-12-07T06:01:20;4.20;;;3.00;;
44516;SDS011;30223;17.182;-96.766;2022-12-07T06:03:46;3.78;;;3.42;;
44516;SDS011;30223;17.182;-96.766;2022-12-07T06:06:13;4.85;;;3.72;;
44516;SDS011;30223;17.182;-96.766;2022-12-07T06:08:39;2.83;;;2.13;;
44516;SDS011;30223;17.182;-96.766;2022-12-07T06:11:06;3.58;;;2.55;;
44516;SDS011;30223;17.182;-96.766;2022-12-07T06:13:51;2.88;;;2.40;;
44516;SDS011;30223;17.182;-96.766;2022-12-07T06:16:18;3.03;;;2.67;;
44516;SDS011;30223;17.182;-96.766;2022-12-07T06:18:44;2.88;;;2.13;;
44516;SDS011;30223;17.182;-96.766;2022-12-07T06:21:11;3.13;;;2.70;;
44516;SDS011;30223;17.182;-96.766;2022-12-07T06:23:39;4.70;;;2.67;;
44516;SDS011;30223;17.182;-96.766;2022-12-07T06:26:06;4.07;;;2.60;;
44516;SDS011;30223;17.182;-96.766;2022-12-07T06:28:32;2.25;;;1.90;;
44516;SDS011;30223;17.182;-96.766;2022-12-07T06:31:00;2.70;;;2.03;;
44516;SDS011;30223;17.182;-96.766;2022-12-07T06:33:27;3.35;;;2.92;;
44516;SDS011;30223;17.182;-96.766;2022-12-07T06:35:54;2.92;;;2.17;;
44516;SDS011;30223;17.182;-96.766;2022-12-07T06:38:21;2.72;;;2.00;;
44516;SDS011;30223;17.182;-96.766;2022-12-07T06:40:48;2.83;;;2.40;;
44516;SDS011;30223;17.182;-96.766;2022-12-07T06:43:14;3.67;;;2.15;;
44516;SDS011;30223;17.182;-96.766;2022-12-07T06:45:41;3.35;;;2.30;;
44516;SDS011;30223;17.182;-96.766;2022-12-07T06:48:08;2.53;;;2.33;;
44516;SDS011;30223;17.182;-96.766;2022-12-07T06:50:35;4.88;;;2.80;;
44516;SDS011;30223;17.182;-96.766;2022-12-07T06:53:01;3.22;;;2.45;;
44516;SDS011;30223;17.182;-96.766;2022-12-07T06:55:28;4.47;;;2.47;;
44516;SDS011;30223;17.182;-96.766;2022-12-07T06:57:55;3.42;;;2.53;;
44516;SDS011;30223;17.182;-96.766;2022-12-07T07:00:21;2.55;;;2.35;;
44516;SDS011;30223;17.182;-96.766;2022-12-07T07:02:48;2.83;;;2.40;;
44516;SDS011;30223;17.182;-96.766;2022-12-07T07:05:15;3.40;;;3.10;;
44516;SDS011;30223;17.182;-96.766;2022-12-07T07:07:42;2.47;;;2.22;;
44516;SDS011;30223;17.182;-96.766;2022-12-07T07:10:08;4.53;;;2.90;;
44516;SDS011;30223;17.182;-96.766;2022-12-07T07:12:35;4.00;;;2.75;;
44516;SDS011;30223;17.182;-96.766;2022-12-07T07:15:02;2.70;;;2.20;;
44516;SDS011;30223;17.182;-96.766;2022-12-07T07:17:29;2.53;;;2.33;;
44516;SDS011;30223;17.182;-96.766;2022-12-07T07:19:55;4.05;;;2.85;;
44516;SDS011;30223;17.182;-96.766;2022-12-07T07:22:22;2.45;;;2.25;;
44516;SDS011;30223;17.182;-96.766;2022-12-07T07:24:48;7.30;;;2.58;;
44516;SDS011;30223;17.182;-96.766;2022-12-07T07:27:15;2.90;;;2.35;;
44516;SDS011;30223;17.182;-96.766;2022-12-07T07:29:42;3.15;;;2.20;;
44516;SDS011;30223;17.182;-96.766;2022-12-07T07:32:08;2.92;;;2.10;;
44516;SDS011;30223;17.182;-96.766;2022-12-07T07:34:35;2.47;;;2.05;;
44516;SDS011;30223;17.182;-96.766;2022-12-07T07:37:01;3.70;;;3.35;;
44516;SDS011;30223;17.182;-96.766;2022-12-07T07:39:28;3.05;;;2.45;;
44516;SDS011;30223;17.182;-96.766;2022-12-07T07:41:55;2.70;;;2.13;;
44516;SDS011;30223;17.182;-96.766;2022-12-07T07:44:21;2.20;;;2.00;;
44516;SDS011;30223;17.182;-96.766;2022-12-07T07:46:48;2.65;;;2.03;;
44516;SDS011;30223;17.182;-96.766;2022-12-07T07:49:14;4.47;;;2.63;;
44516;SDS011;30223;17.182;-96.766;2022-12-07T07:51:41;2.72;;;2.05;;
44516;SDS011;30223;17.182;-96.766;2022-12-07T07:54:08;3.33;;;2.55;;
44516;SDS011;30223;17.182;-96.766;2022-12-07T07:56:34;4.90;;;2.28;;
44516;SDS011;30223;17.182;-96.766;2022-12-07T07:59:01;3.25;;;2.67;;
44516;SDS011;30223;17.182;-96.766;2022-12-07T08:01:27;2.40;;;2.30;;
44516;SDS011;30223;17.182;-96.766;2022-12-07T08:03:54;2.83;;;2.40;;
44516;SDS011;30223;17.182;-96.766;2022-12-07T08:06:21;2.80;;;2.55;;
44516;SDS011;30223;17.182;-96.766;2022-12-07T08:08:47;2.88;;;2.28;;
44516;SDS011;30223;17.182;-96.766;2022-12-07T08:11:14;3.08;;;2.75;;
44516;SDS011;30223;17.182;-96.766;2022-12-07T08:13:40;3.28;;;2.97;;
44516;SDS011;30223;17.182;-96.766;2022-12-07T08:16:08;3.15;;;2.05;;
44516;SDS011;30223;17.182;-96.766;2022-12-07T08:18:36;2.15;;;1.88;;
44516;SDS011;30223;17.182;-96.766;2022-12-07T08:21:05;3.57;;;2.60;;
44516;SDS011;30223;17.182;-96.766;2022-12-07T08:23:33;2.92;;;2.00;;
44516;SDS011;30223;17.182;-96.766;2022-12-07T08:26:03;2.80;;;2.25;;
44516;SDS011;30223;17.182;-96.766;2022-12-07T08:28:31;2.38;;;2.15;;
44516;SDS011;30223;17.182;-96.766;2022-12-07T08:31:01;2.90;;;2.53;;
44516;SDS011;30223;17.182;-96.766;2022-12-07T08:33:32;3.35;;;2.75;;
44516;SDS011;30223;17.182;-96.766;2022-12-07T08:36:05;2.55;;;2.22;;
44516;SDS011;30223;17.182;-96.766;2022-12-07T08:38:36;3.53;;;2.15;;
44516;SDS011;30223;17.182;-96.766;2022-12-07T08:41:04;2.55;;;2.15;;
44516;SDS011;30223;17.182;-96.766;2022-12-07T08:43:32;4.57;;;2.90;;
44516;SDS011;30223;17.182;-96.766;2022-12-07T08:46:09;2.72;;;2.53;;
44516;SDS011;30223;17.182;-96.766;2022-12-07T08:49:12;3.28;;;2.22;;
44516;SDS011;30223;17.182;-96.766;2022-12-07T08:51:44;3.35;;;2.13;;
44516;SDS011;30223;17.182;-96.766;2022-12-07T08:54:12;3.00;;;2.53;;
44516;SDS011;30223;17.182;-96.766;2022-12-07T08:56:42;2.88;;;2.53;;
44516;SDS011;30223;17.182;-96.766;2022-12-07T08:59:10;3.80;;;2.78;;
44516;SDS011;30223;17.182;-96.766;2022-12-07T09:01:40;2.00;;;1.77;;
44516;SDS011;30223;17.182;-96.766;2022-12-07T09:04:07;2.40;;;2.20;;
44516;SDS011;30223;17.182;-96.766;2022-12-07T09:06:33;4.35;;;2.25;;
44516;SDS011;30223;17.182;-96.766;2022-12-07T09:09:00;3.60;;;2.53;;
44516;SDS011;30223;17.182;-96.766;2022-12-07T09:11:28;2.95;;;2.65;;
44516;SDS011;30223;17.182;-96.766;2022-12-07T09:13:55;2.58;;;2.28;;
44516;SDS011;30223;17.182;-96.766;2022-12-07T09:16:21;3.55;;;2.75;;
44516;SDS011;30223;17.182;-96.766;2022-12-07T09:18:48;3.47;;;2.60;;
44516;SDS011;30223;17.182;-96.766;2022-12-07T09:21:15;3.17;;;2.30;;
44516;SDS011;30223;17.182;-96.766;2022-12-07T09:23:41;3.13;;;2.40;;
44516;SDS011;30223;17.182;-96.766;2022-12-07T09:26:08;2.88;;;2.20;;
44516;SDS011;30223;17.182;-96.766;2022-12-07T09:28:35;3.10;;;2.42;;
44516;SDS011;30223;17.182;-96.766;2022-12-07T09:31:02;2.20;;;2.00;;
44516;SDS011;30223;17.182;-96.766;2022-12-07T09:33:29;2.40;;;2.20;;
44516;SDS011;30223;17.182;-96.766;2022-12-07T09:35:56;2.67;;;1.90;;
44516;SDS011;30223;17.182;-96.766;2022-12-07T09:38:23;2.25;;;2.03;;
44516;SDS011;30223;17.182;-96.766;2022-12-07T09:40:52;2.90;;;2.10;;
44516;SDS011;30223;17.182;-96.766;2022-12-07T09:43:24;2.58;;;2.38;;
44516;SDS011;30223;17.182;-96.766;2022-12-07T09:45:52;3.00;;;2.58;;
44516;SDS011;30223;17.182;-96.766;2022-12-07T09:48:29;2.50;;;2.28;;
44516;SDS011;30223;17.182;-96.766;2022-12-07T09:50:59;2.45;;;2.25;;
44516;SDS011;30223;17.182;-96.766;2022-12-07T09:53:30;3.63;;;2.23;;
44516;SDS011;30223;17.182;-96.766;2022-12-07T09:56:01;2.88;;;2.60;;
44516;SDS011;30223;17.182;-96.766;2022-12-07T09:58:28;2.22;;;2.03;;
44516;SDS011;30223;17.182;-96.766;2022-12-07T10:00:59;3.13;;;2.47;;
44516;SDS011;30223;17.182;-96.766;2022-12-07T10:03:31;2.92;;;2.20;;
44516;SDS011;30223;17.182;-96.766;2022-12-07T10:05:58;2.65;;;2.28;;
44516;SDS011;30223;17.182;-96.766;2022-12-07T10:08:25;2.20;;;1.98;;
44516;SDS011;30223;17.182;-96.766;2022-12-07T10:10:53;3.78;;;2.85;;
44516;SDS011;30223;17.182;-96.766;2022-12-07T10:21:18;2.72;;;1.73;;
44516;SDS011;30223;17.182;-96.766;2022-12-07T10:29:20;3.40;;;2.47;;
44516;SDS011;30223;17.182;-96.766;2022-12-07T10:32:03;2.75;;;2.53;;
44516;SDS011;30223;17.182;-96.766;2022-12-07T10:34:42;3.60;;;2.40;;
44516;SDS011;30223;17.182;-96.766;2022-12-07T10:42:18;3.05;;;2.33;;
44516;SDS011;30223;17.182;-96.766;2022-12-07T10:45:02;3.10;;;2.35;;
44516;SDS011;30223;17.182;-96.766;2022-12-07T10:53:28;2.33;;;2.10;;
44516;SDS011;30223;17.182;-96.766;2022-12-07T10:56:35;2.30;;;2.05;;
44516;SDS011;30223;17.182;-96.766;2022-12-07T11:02:02;2.90;;;2.60;;
44516;SDS011;30223;17.182;-96.766;2022-12-07T11:07:35;3.25;;;2.15;;
44516;SDS011;30223;17.182;-96.766;2022-12-07T11:21:48;3.35;;;2.08;;
44516;SDS011;30223;17.182;-96.766;2022-12-07T11:24:26;1.80;;;1.70;;
44516;SDS011;30223;17.182;-96.766;2022-12-07T11:41:11;3.05;;;1.85;;
44516;SDS011;30223;17.182;-96.766;2022-12-07T11:43:52;2.97;;;2.35;;
44516;SDS011;30223;17.182;-96.766;2022-12-07T11:46:43;2.50;;;2.25;;
44516;SDS011;30223;17.182;-96.766;2022-12-07T11:52:05;2.75;;;2.08;;
44516;SDS011;30223;17.182;-96.766;2022-12-07T11:54:47;2.22;;;2.03;;
44516;SDS011;30223;17.182;-96.766;2022-12-07T11:57:22;2.65;;;2.00;;
44516;SDS011;30223;17.182;-96.766;2022-12-07T12:00:03;2.75;;;1.90;;
44516;SDS011;30223;17.182;-96.766;2022-12-07T12:02:41;2.03;;;1.67;;
44516;SDS011;30223;17.182;-96.766;2022-12-07T12:05:21;2.95;;;2.47;;
44516;SDS011;30223;17.182;-96.766;2022-12-07T12:10:53;2.63;;;2.28;;
44516;SDS011;30223;17.182;-96.766;2022-12-07T12:22:09;2.30;;;1.90;;
44516;SDS011;30223;17.182;-96.766;2022-12-07T12:24:43;4.55;;;1.95;;
44516;SDS011;30223;17.182;-96.766;2022-12-07T12:27:17;2.63;;;2.20;;
44516;SDS011;30223;17.182;-96.766;2022-12-07T12:29:57;2.85;;;2.45;;
44516;SDS011;30223;17.182;-96.766;2022-12-07T12:40:59;2.70;;;2.35;;
44516;SDS011;30223;17.182;-96.766;2022-12-07T12:54:25;3.22;;;2.25;;
44516;SDS011;30223;17.182;-96.766;2022-12-07T12:59:33;2.33;;;2.13;;
44516;SDS011;30223;17.182;-96.766;2022-12-07T13:12:59;3.20;;;2.45;;
44516;SDS011;30223;17.182;-96.766;2022-12-07T13:15:38;6.15;;;2.75;;
44516;SDS011;30223;17.182;-96.766;2022-12-07T13:20:58;3.53;;;2.03;;
44516;SDS011;30223;17.182;-96.766;2022-12-07T13:23:29;2.35;;;1.98;;
44516;SDS011;30223;17.182;-96.766;2022-12-07T13:31:42;3.78;;;2.25;;
44516;SDS011;30223;17.182;-96.766;2022-12-07T13:34:33;3.10;;;2.00;;
44516;SDS011;30223;17.182;-96.766;2022-12-07T13:37:12;2.88;;;2.33;;
44516;SDS011;30223;17.182;-96.766;2022-12-07T13:39:49;2.78;;;1.90;;
44516;SDS011;30223;17.182;-96.766;2022-12-07T13:42:34;2.88;;;2.33;;
44516;SDS011;30223;17.182;-96.766;2022-12-07T13:45:22;2.20;;;1.88;;
44516;SDS011;30223;17.182;-96.766;2022-12-07T13:53:49;2.15;;;1.83;;
44516;SDS011;30223;17.182;-96.766;2022-12-07T13:56:27;2.88;;;2.42;;
44516;SDS011;30223;17.182;-96.766;2022-12-07T13:59:00;2.40;;;2.20;;
44516;SDS011;30223;17.182;-96.766;2022-12-07T14:01:30;2.38;;;1.90;;
44516;SDS011;30223;17.182;-96.766;2022-12-07T14:06:49;2.70;;;2.10;;
44516;SDS011;30223;17.182;-96.766;2022-12-07T14:09:18;3.05;;;1.75;;
44516;SDS011;30223;17.182;-96.766;2022-12-07T14:11:50;2.67;;;1.75;;
44516;SDS011;30223;17.182;-96.766;2022-12-07T14:14:26;2.85;;;1.83;;
44516;SDS011;30223;17.182;-96.766;2022-12-07T14:17:00;4.28;;;1.83;;
44516;SDS011;30223;17.182;-96.766;2022-12-07T14:22:08;4.13;;;2.88;;
44516;SDS011;30223;17.182;-96.766;2022-12-07T14:24:44;2.33;;;1.90;;
44516;SDS011;30223;17.182;-96.766;2022-12-07T14:27:17;1.77;;;1.67;;
44516;SDS011;30223;17.182;-96.766;2022-12-07T14:29:51;3.65;;;1.98;;
44516;SDS011;30223;17.182;-96.766;2022-12-07T14:32:19;2.60;;;1.40;;
44516;SDS011;30223;17.182;-96.766;2022-12-07T14:34:59;3.65;;;2.05;;
44516;SDS011;30223;17.182;-96.766;2022-12-07T14:40:02;2.58;;;1.65;;
44516;SDS011;30223;17.182;-96.766;2022-12-07T14:42:29;3.28;;;1.50;;
44516;SDS011;30223;17.182;-96.766;2022-12-07T14:44:58;2.47;;;2.17;;
44516;SDS011;30223;17.182;-96.766;2022-12-07T14:47:25;1.77;;;1.52;;
44516;SDS011;30223;17.182;-96.766;2022-12-07T14:49:52;3.30;;;2.17;;
44516;SDS011;30223;17.182;-96.766;2022-12-07T14:52:20;2.30;;;1.75;;
44516;SDS011;30223;17.182;-96.766;2022-12-07T14:54:54;3.72;;;1.63;;
44516;SDS011;30223;17.182;-96.766;2022-12-07T14:57:20;2.05;;;1.60;;
44516;SDS011;30223;17.182;-96.766;2022-12-07T14:59:47;1.70;;;1.58;;
44516;SDS011;30223;17.182;-96.766;2022-12-07T15:02:14;1.55;;;1.40;;
44516;SDS011;30223;17.182;-96.766;2022-12-07T15:04:41;1.70;;;1.60;;
44516;SDS011;30223;17.182;-96.766;2022-12-07T15:07:18;2.63;;;1.58;;
44516;SDS011;30223;17.182;-96.766;2022-12-07T15:09:47;1.80;;;1.52;;
44516;SDS011;30223;17.182;-96.766;2022-12-07T15:12:13;2.33;;;1.42;;
44516;SDS011;30223;17.182;-96.766;2022-12-07T15:14:40;3.05;;;1.58;;
44516;SDS011;30223;17.182;-96.766;2022-12-07T15:17:09;2.70;;;1.70;;
44516;SDS011;30223;17.182;-96.766;2022-12-07T15:19:37;3.60;;;2.67;;
44516;SDS011;30223;17.182;-96.766;2022-12-07T15:22:04;1.60;;;1.50;;
44516;SDS011;30223;17.182;-96.766;2022-12-07T15:24:30;2.25;;;1.75;;
44516;SDS011;30223;17.182;-96.766;2022-12-07T15:26:58;2.35;;;1.48;;
44516;SDS011;30223;17.182;-96.766;2022-12-07T15:29:25;2.40;;;1.80;;
44516;SDS011;30223;17.182;-96.766;2022-12-07T15:31:51;1.92;;;1.50;;
44516;SDS011;30223;17.182;-96.766;2022-12-07T15:34:18;2.75;;;1.60;;
44516;SDS011;30223;17.182;-96.766;2022-12-07T15:36:45;2.85;;;1.67;;
44516;SDS011;30223;17.182;-96.766;2022-12-07T15:39:11;2.05;;;1.42;;
44516;SDS011;30223;17.182;-96.766;2022-12-07T15:41:38;2.60;;;2.15;;
44516;SDS011;30223;17.182;-96.766;2022-12-07T15:44:05;2.55;;;1.98;;
44516;SDS011;30223;17.182;-96.766;2022-12-07T15:46:50;4.20;;;1.88;;
44516;SDS011;30223;17.182;-96.766;2022-12-07T15:49:17;2.35;;;1.90;;
44516;SDS011;30223;17.182;-96.766;2022-12-07T15:51:44;3.42;;;1.70;;
44516;SDS011;30223;17.182;-96.766;2022-12-07T15:54:13;4.53;;;1.60;;
44516;SDS011;30223;17.182;-96.766;2022-12-07T15:56:47;3.75;;;1.90;;
44516;SDS011;30223;17.182;-96.766;2022-12-07T15:59:14;2.40;;;1.70;;
44516;SDS011;30223;17.182;-96.766;2022-12-07T16:01:40;1.92;;;1.60;;
44516;SDS011;30223;17.182;-96.766;2022-12-07T16:04:07;2.33;;;1.98;;
44516;SDS011;30223;17.182;-96.766;2022-12-07T16:06:34;3.83;;;1.58;;
44516;SDS011;30223;17.182;-96.766;2022-12-07T16:09:00;2.03;;;1.70;;
44516;SDS011;30223;17.182;-96.766;2022-12-07T16:11:27;1.50;;;1.40;;
44516;SDS011;30223;17.182;-96.766;2022-12-07T16:13:54;4.43;;;2.38;;
44516;SDS011;30223;17.182;-96.766;2022-12-07T16:16:21;2.50;;;2.13;;
44516;SDS011;30223;17.182;-96.766;2022-12-07T16:18:48;2.30;;;2.10;;
44516;SDS011;30223;17.182;-96.766;2022-12-07T16:21:16;3.22;;;1.85;;
44516;SDS011;30223;17.182;-96.766;2022-12-07T16:23:43;2.22;;;1.80;;
44516;SDS011;30223;17.182;-96.766;2022-12-07T16:26:14;3.65;;;1.58;;
44516;SDS011;30223;17.182;-96.766;2022-12-07T16:28:48;2.65;;;1.73;;
44516;SDS011;30223;17.182;-96.766;2022-12-07T16:31:16;3.92;;;2.08;;
44516;SDS011;30223;17.182;-96.766;2022-12-07T16:33:46;3.70;;;2.05;;
44516;SDS011;30223;17.182;-96.766;2022-12-07T16:36:14;2.47;;;1.77;;
44516;SDS011;30223;17.182;-96.766;2022-12-07T16:38:42;3.70;;;1.80;;
44516;SDS011;30223;17.182;-96.766;2022-12-07T16:41:09;3.40;;;2.25;;
44516;SDS011;30223;17.182;-96.766;2022-12-07T16:43:36;3.67;;;2.22;;
44516;SDS011;30223;17.182;-96.766;2022-12-07T16:46:03;2.17;;;1.70;;
44516;SDS011;30223;17.182;-96.766;2022-12-07T16:48:30;3.95;;;2.10;;
44516;SDS011;30223;17.182;-96.766;2022-12-07T16:50:57;2.33;;;2.10;;
44516;SDS011;30223;17.182;-96.766;2022-12-07T16:53:27;1.95;;;1.42;;
44516;SDS011;30223;17.182;-96.766;2022-12-07T16:55:54;2.40;;;2.20;;
44516;SDS011;30223;17.182;-96.766;2022-12-07T16:58:21;3.17;;;2.08;;
44516;SDS011;30223;17.182;-96.766;2022-12-07T17:00:48;3.08;;;2.47;;
44516;SDS011;30223;17.182;-96.766;2022-12-07T17:03:14;1.88;;;1.30;;
44516;SDS011;30223;17.182;-96.766;2022-12-07T17:05:42;2.13;;;1.55;;
44516;SDS011;30223;17.182;-96.766;2022-12-07T17:08:10;5.18;;;1.77;;
44516;SDS011;30223;17.182;-96.766;2022-12-07T17:10:38;2.22;;;1.77;;
44516;SDS011;30223;17.182;-96.766;2022-12-07T17:13:07;2.45;;;1.40;;
44516;SDS011;30223;17.182;-96.766;2022-12-07T17:15:57;3.70;;;1.70;;
44516;SDS011;30223;17.182;-96.766;2022-12-07T17:18:26;2.45;;;1.95;;
44516;SDS011;30223;17.182;-96.766;2022-12-07T17:21:04;2.85;;;2.05;;
44516;SDS011;30223;17.182;-96.766;2022-12-07T17:23:32;4.20;;;2.17;;
44516;SDS011;30223;17.182;-96.766;2022-12-07T17:26:06;2.47;;;2.03;;
44516;SDS011;30223;17.182;-96.766;2022-12-07T17:28:38;2.55;;;2.35;;